sensor_id;sensor_type;location;lat;lon;timestamp;pressure;altitude;pressure_sealevel;temperature;humidity
75290;BME280;63883;48.996;20.804;2023-08-06T00:00:07;95325.59;;;17.60;100.00
75290;BME280;63883;48.996;20.804;2023-08-06T00:02:34;95309.81;;;17.64;100.00
75290;BME280;63883;48.996;20.804;2023-08-06T00:04:59;95313.34;;;17.63;100.00
75290;BME280;63883;48.996;20.804;2023-08-06T00:07:25;95296.69;;;17.67;100.00
75290;BME280;63883;48.996;20.804;2023-08-06T00:09:51;95296.34;;;17.72;100.00
75290;BME280;63883;48.996;20.804;2023-08-06T00:12:17;95292.69;;;17.74;100.00
75290;BME280;63883;48.996;20.804;2023-08-06T00:14:42;95297.84;;;17.74;100.00
75290;BME280;63883;48.996;20.804;2023-08-06T00:17:08;95287.53;;;17.74;100.00
75290;BME280;63883;48.996;20.804;2023-08-06T00:19:34;95266.56;;;17.68;100.00
75290;BME280;63883;48.996;20.804;2023-08-06T00:21:59;95267.72;;;17.64;100.00
75290;BME280;63883;48.996;20.804;2023-08-06T00:24:25;95264.78;;;17.57;100.00
75290;BME280;63883;48.996;20.804;2023-08-06T00:26:51;95251.63;;;17.49;100.00
75290;BME280;63883;48.996;20.804;2023-08-06T00:29:16;95266.03;;;17.40;100.00
75290;BME280;63883;48.996;20.804;2023-08-06T00:31:42;95266.72;;;17.31;100.00
75290;BME280;63883;48.996;20.804;2023-08-06T00:34:07;95243.03;;;17.15;100.00
75290;BME280;63883;48.996;20.804;2023-08-06T00:36:33;95242.09;;;17.16;100.00
75290;BME280;63883;48.996;20.804;2023-08-06T00:38:59;95239.41;;;17.17;100.00
75290;BME280;63883;48.996;20.804;2023-08-06T00:41:25;95235.53;;;17.12;100.00
75290;BME280;63883;48.996;20.804;2023-08-06T00:43:50;95235.84;;;17.07;100.00
75290;BME280;63883;48.996;20.804;2023-08-06T00:46:16;95241.50;;;17.12;100.00
75290;BME280;63883;48.996;20.804;2023-08-06T00:48:42;95232.25;;;17.10;100.00
75290;BME280;63883;48.996;20.804;2023-08-06T00:51:11;95241.00;;;17.07;100.00
75290;BME280;63883;48.996;20.804;2023-08-06T00:53:39;95246.06;;;17.09;100.00
75290;BME280;63883;48.996;20.804;2023-08-06T00:56:06;95242.19;;;17.03;100.00
75290;BME280;63883;48.996;20.804;2023-08-06T00:58:33;95245.69;;;16.91;100.00
75290;BME280;63883;48.996;20.804;2023-08-06T01:00:59;95241.09;;;16.84;100.00
75290;BME280;63883;48.996;20.804;2023-08-06T01:03:25;95242.38;;;16.78;100.00
75290;BME280;63883;48.996;20.804;2023-08-06T01:05:51;95245.63;;;16.80;100.00
75290;BME280;63883;48.996;20.804;2023-08-06T01:14:54;95225.03;;;16.80;100.00
75290;BME280;63883;48.996;20.804;2023-08-06T01:17:23;95222.13;;;16.85;100.00
75290;BME280;63883;48.996;20.804;2023-08-06T01:19:49;95213.94;;;16.91;100.00
75290;BME280;63883;48.996;20.804;2023-08-06T01:22:15;95225.75;;;16.93;100.00
75290;BME280;63883;48.996;20.804;2023-08-06T01:24:41;95223.91;;;16.95;100.00
75290;BME280;63883;48.996;20.804;2023-08-06T01:27:32;95226.28;;;17.09;100.00
75290;BME280;63883;48.996;20.804;2023-08-06T01:30:19;95236.38;;;17.24;100.00
75290;BME280;63883;48.996;20.804;2023-08-06T01:32:49;95233.22;;;17.31;100.00
75290;BME280;63883;48.996;20.804;2023-08-06T01:35:17;95241.19;;;17.39;100.00
75290;BME280;63883;48.996;20.804;2023-08-06T01:37:45;95232.41;;;17.42;100.00
75290;BME280;63883;48.996;20.804;2023-08-06T01:40:12;95222.56;;;17.47;100.00
75290;BME280;63883;48.996;20.804;2023-08-06T01:42:38;95217.66;;;17.55;100.00
75290;BME280;63883;48.996;20.804;2023-08-06T01:45:06;95206.78;;;17.63;100.00
75290;BME280;63883;48.996;20.804;2023-08-06T01:47:32;95191.59;;;17.58;100.00
75290;BME280;63883;48.996;20.804;2023-08-06T01:49:58;95191.41;;;17.61;100.00
75290;BME280;63883;48.996;20.804;2023-08-06T01:52:24;95180.72;;;17.66;100.00
75290;BME280;63883;48.996;20.804;2023-08-06T01:54:49;95180.88;;;17.64;100.00
75290;BME280;63883;48.996;20.804;2023-08-06T01:57:15;95191.28;;;17.74;100.00
75290;BME280;63883;48.996;20.804;2023-08-06T01:59:40;95186.94;;;17.74;100.00
75290;BME280;63883;48.996;20.804;2023-08-06T02:02:06;95163.50;;;17.66;100.00
75290;BME280;63883;48.996;20.804;2023-08-06T02:04:32;95178.03;;;17.67;100.00
75290;BME280;63883;48.996;20.804;2023-08-06T02:06:57;95163.38;;;17.68;100.00
75290;BME280;63883;48.996;20.804;2023-08-06T02:09:23;95162.69;;;17.66;100.00
75290;BME280;63883;48.996;20.804;2023-08-06T02:11:49;95158.69;;;17.73;100.00
75290;BME280;63883;48.996;20.804;2023-08-06T02:14:14;95150.59;;;17.66;100.00
75290;BME280;63883;48.996;20.804;2023-08-06T02:16:40;95149.69;;;17.67;100.00
75290;BME280;63883;48.996;20.804;2023-08-06T02:19:06;95156.13;;;17.62;100.00
75290;BME280;63883;48.996;20.804;2023-08-06T02:21:31;95141.44;;;17.51;100.00
75290;BME280;63883;48.996;20.804;2023-08-06T02:23:57;95129.72;;;17.58;100.00
75290;BME280;63883;48.996;20.804;2023-08-06T02:26:23;95135.50;;;17.62;100.00
75290;BME280;63883;48.996;20.804;2023-08-06T02:28:48;95135.28;;;17.65;100.00
75290;BME280;63883;48.996;20.804;2023-08-06T02:31:14;95135.69;;;17.58;100.00
75290;BME280;63883;48.996;20.804;2023-08-06T02:33:40;95130.81;;;17.55;100.00
75290;BME280;63883;48.996;20.804;2023-08-06T02:36:06;95124.25;;;17.63;100.00
75290;BME280;63883;48.996;20.804;2023-08-06T02:38:32;95111.94;;;17.66;100.00
75290;BME280;63883;48.996;20.804;2023-08-06T02:40:58;95103.97;;;17.69;100.00
75290;BME280;63883;48.996;20.804;2023-08-06T02:43:23;95095.88;;;17.63;100.00
75290;BME280;63883;48.996;20.804;2023-08-06T02:45:49;95102.31;;;17.68;100.00
75290;BME280;63883;48.996;20.804;2023-08-06T02:48:15;95097.88;;;17.70;100.00
75290;BME280;63883;48.996;20.804;2023-08-06T02:50:41;95082.13;;;17.73;100.00
75290;BME280;63883;48.996;20.804;2023-08-06T02:53:08;95080.97;;;17.66;100.00
75290;BME280;63883;48.996;20.804;2023-08-06T02:55:34;95087.56;;;17.70;100.00
75290;BME280;63883;48.996;20.804;2023-08-06T02:58:01;95097.88;;;17.70;100.00
75290;BME280;63883;48.996;20.804;2023-08-06T03:00:27;95107.44;;;17.79;100.00
75290;BME280;63883;48.996;20.804;2023-08-06T03:02:53;95117.84;;;17.89;100.00
75290;BME280;63883;48.996;20.804;2023-08-06T03:05:19;95125.50;;;17.79;100.00
75290;BME280;63883;48.996;20.804;2023-08-06T03:07:45;95124.00;;;17.77;100.00
75290;BME280;63883;48.996;20.804;2023-08-06T03:10:10;95131.28;;;17.72;100.00
75290;BME280;63883;48.996;20.804;2023-08-06T03:12:36;95120.59;;;17.54;100.00
75290;BME280;63883;48.996;20.804;2023-08-06T03:15:02;95107.72;;;17.54;100.00
75290;BME280;63883;48.996;20.804;2023-08-06T03:17:28;95103.97;;;17.47;100.00
75290;BME280;63883;48.996;20.804;2023-08-06T03:19:53;95101.88;;;17.41;100.00
75290;BME280;63883;48.996;20.804;2023-08-06T03:22:19;95098.38;;;17.42;100.00
75290;BME280;63883;48.996;20.804;2023-08-06T03:24:45;95085.69;;;17.39;100.00
75290;BME280;63883;48.996;20.804;2023-08-06T03:27:10;95072.59;;;17.42;100.00
75290;BME280;63883;48.996;20.804;2023-08-06T03:29:36;95080.28;;;17.53;100.00
75290;BME280;63883;48.996;20.804;2023-08-06T03:32:02;95086.25;;;17.53;100.00
75290;BME280;63883;48.996;20.804;2023-08-06T03:34:27;95068.38;;;17.41;100.00
75290;BME280;63883;48.996;20.804;2023-08-06T03:36:53;95071.97;;;17.49;100.00
75290;BME280;63883;48.996;20.804;2023-08-06T03:39:19;95060.38;;;17.55;100.00
75290;BME280;63883;48.996;20.804;2023-08-06T03:41:44;95052.16;;;17.61;100.00
75290;BME280;63883;48.996;20.804;2023-08-06T03:44:10;95043.00;;;17.68;100.00
75290;BME280;63883;48.996;20.804;2023-08-06T03:46:35;95031.38;;;17.74;100.00
75290;BME280;63883;48.996;20.804;2023-08-06T03:49:01;95031.38;;;17.74;100.00
75290;BME280;63883;48.996;20.804;2023-08-06T03:51:27;95039.44;;;17.80;100.00
75290;BME280;63883;48.996;20.804;2023-08-06T03:53:53;95036.72;;;17.82;100.00
75290;BME280;63883;48.996;20.804;2023-08-06T03:56:18;95032.97;;;17.86;100.00
75290;BME280;63883;48.996;20.804;2023-08-06T03:58:44;95036.13;;;17.89;100.00
75290;BME280;63883;48.996;20.804;2023-08-06T04:01:10;95021.84;;;17.85;100.00
75290;BME280;63883;48.996;20.804;2023-08-06T04:03:35;95030.72;;;17.92;100.00
75290;BME280;63883;48.996;20.804;2023-08-06T04:06:04;95025.41;;;17.94;100.00
75290;BME280;63883;48.996;20.804;2023-08-06T04:08:30;95020.91;;;17.86;100.00
75290;BME280;63883;48.996;20.804;2023-08-06T04:10:55;95024.84;;;17.90;100.00
75290;BME280;63883;48.996;20.804;2023-08-06T04:13:21;95023.84;;;18.03;100.00
75290;BME280;63883;48.996;20.804;2023-08-06T04:15:47;95021.16;;;18.04;100.00
75290;BME280;63883;48.996;20.804;2023-08-06T04:18:13;95010.50;;;17.98;100.00
75290;BME280;63883;48.996;20.804;2023-08-06T04:20:44;95000.69;;;17.91;100.00
75290;BME280;63883;48.996;20.804;2023-08-06T04:23:10;95012.34;;;17.86;100.00
75290;BME280;63883;48.996;20.804;2023-08-06T04:25:36;95011.06;;;18.01;100.00
75290;BME280;63883;48.996;20.804;2023-08-06T04:28:02;95007.94;;;17.98;100.00
75290;BME280;63883;48.996;20.804;2023-08-06T04:30:27;95000.44;;;17.94;100.00
75290;BME280;63883;48.996;20.804;2023-08-06T04:32:53;94991.63;;;17.97;100.00
75290;BME280;63883;48.996;20.804;2023-08-06T04:35:19;94982.63;;;17.91;100.00
75290;BME280;63883;48.996;20.804;2023-08-06T04:37:44;94979.44;;;17.99;100.00
75290;BME280;63883;48.996;20.804;2023-08-06T04:40:10;94976.22;;;18.07;100.00
75290;BME280;63883;48.996;20.804;2023-08-06T04:42:36;94982.41;;;18.15;100.00
75290;BME280;63883;48.996;20.804;2023-08-06T04:45:02;95010.81;;;18.25;100.00
75290;BME280;63883;48.996;20.804;2023-08-06T04:47:28;95003.91;;;18.05;100.00
75290;BME280;63883;48.996;20.804;2023-08-06T04:49:53;94992.13;;;17.91;100.00
75290;BME280;63883;48.996;20.804;2023-08-06T04:52:19;94979.66;;;17.96;100.00
75290;BME280;63883;48.996;20.804;2023-08-06T04:54:45;94976.38;;;17.94;100.00
75290;BME280;63883;48.996;20.804;2023-08-06T04:57:11;94985.25;;;17.80;100.00
75290;BME280;63883;48.996;20.804;2023-08-06T04:59:36;94992.31;;;17.78;100.00
75290;BME280;63883;48.996;20.804;2023-08-06T05:02:02;94991.25;;;17.81;100.00
75290;BME280;63883;48.996;20.804;2023-08-06T05:04:28;95015.47;;;17.89;100.00
75290;BME280;63883;48.996;20.804;2023-08-06T05:06:54;95011.97;;;17.90;100.00
75290;BME280;63883;48.996;20.804;2023-08-06T05:09:19;94991.75;;;17.75;100.00
75290;BME280;63883;48.996;20.804;2023-08-06T05:11:47;95006.47;;;17.84;100.00
75290;BME280;63883;48.996;20.804;2023-08-06T05:14:12;95005.03;;;17.91;100.00
75290;BME280;63883;48.996;20.804;2023-08-06T05:16:38;95001.84;;;17.99;100.00
75290;BME280;63883;48.996;20.804;2023-08-06T05:19:04;95007.00;;;17.99;100.00
75290;BME280;63883;48.996;20.804;2023-08-06T05:21:30;95010.13;;;18.02;100.00
75290;BME280;63883;48.996;20.804;2023-08-06T05:23:55;95014.16;;;17.95;100.00
75290;BME280;63883;48.996;20.804;2023-08-06T05:26:21;95019.06;;;17.98;100.00
75290;BME280;63883;48.996;20.804;2023-08-06T05:28:47;95028.56;;;17.98;100.00
75290;BME280;63883;48.996;20.804;2023-08-06T05:31:13;95034.28;;;18.01;100.00
75290;BME280;63883;48.996;20.804;2023-08-06T05:33:38;95049.53;;;18.04;100.00
75290;BME280;63883;48.996;20.804;2023-08-06T05:36:04;95045.44;;;18.02;100.00
75290;BME280;63883;48.996;20.804;2023-08-06T05:38:30;95043.34;;;17.95;100.00
75290;BME280;63883;48.996;20.804;2023-08-06T05:40:56;95045.94;;;17.95;100.00
75290;BME280;63883;48.996;20.804;2023-08-06T05:43:22;95042.69;;;17.93;100.00
75290;BME280;63883;48.996;20.804;2023-08-06T05:45:51;95041.28;;;17.89;100.00
75290;BME280;63883;48.996;20.804;2023-08-06T05:48:17;95053.47;;;17.87;100.00
75290;BME280;63883;48.996;20.804;2023-08-06T05:50:42;95047.97;;;17.81;100.00
75290;BME280;63883;48.996;20.804;2023-08-06T05:53:08;95046.94;;;17.83;100.00
75290;BME280;63883;48.996;20.804;2023-08-06T05:55:34;95047.97;;;17.92;100.00
75290;BME280;63883;48.996;20.804;2023-08-06T05:58:00;95046.13;;;18.04;100.00
75290;BME280;63883;48.996;20.804;2023-08-06T06:00:26;95039.22;;;18.04;100.00
75290;BME280;63883;48.996;20.804;2023-08-06T06:02:52;95051.69;;;17.99;100.00
75290;BME280;63883;48.996;20.804;2023-08-06T06:05:18;95048.28;;;17.99;100.00
75290;BME280;63883;48.996;20.804;2023-08-06T06:07:43;95062.31;;;18.06;100.00
75290;BME280;63883;48.996;20.804;2023-08-06T06:10:09;95059.47;;;18.09;100.00
75290;BME280;63883;48.996;20.804;2023-08-06T06:12:35;95044.38;;;18.04;100.00
75290;BME280;63883;48.996;20.804;2023-08-06T06:15:01;95054.59;;;17.94;100.00
75290;BME280;63883;48.996;20.804;2023-08-06T06:17:27;95048.56;;;17.84;100.00
75290;BME280;63883;48.996;20.804;2023-08-06T06:19:53;95045.06;;;17.85;100.00
75290;BME280;63883;48.996;20.804;2023-08-06T06:22:18;95043.25;;;17.97;100.00
75290;BME280;63883;48.996;20.804;2023-08-06T06:24:44;95038.66;;;18.01;100.00
75290;BME280;63883;48.996;20.804;2023-08-06T06:27:10;95034.56;;;17.98;100.00
75290;BME280;63883;48.996;20.804;2023-08-06T06:29:36;95038.47;;;17.92;100.00
75290;BME280;63883;48.996;20.804;2023-08-06T06:32:01;95043.81;;;18.01;100.00
75290;BME280;63883;48.996;20.804;2023-08-06T06:34:27;95043.63;;;18.13;100.00
75290;BME280;63883;48.996;20.804;2023-08-06T06:36:52;95049.84;;;18.11;100.00
75290;BME280;63883;48.996;20.804;2023-08-06T06:39:18;95051.72;;;18.09;100.00
75290;BME280;63883;48.996;20.804;2023-08-06T06:41:44;95039.78;;;18.08;100.00
75290;BME280;63883;48.996;20.804;2023-08-06T06:44:10;95046.91;;;18.15;100.00
75290;BME280;63883;48.996;20.804;2023-08-06T06:46:35;95041.38;;;18.20;100.00
75290;BME280;63883;48.996;20.804;2023-08-06T06:49:01;95043.44;;;18.26;100.00
75290;BME280;63883;48.996;20.804;2023-08-06T06:51:27;95045.28;;;18.35;100.00
75290;BME280;63883;48.996;20.804;2023-08-06T06:53:53;95039.72;;;18.40;100.00
75290;BME280;63883;48.996;20.804;2023-08-06T06:56:18;95045.78;;;18.29;100.00
75290;BME280;63883;48.996;20.804;2023-08-06T06:58:44;95049.50;;;18.15;100.00
75290;BME280;63883;48.996;20.804;2023-08-06T07:01:09;95054.66;;;18.15;100.00
75290;BME280;63883;48.996;20.804;2023-08-06T07:03:37;95043.88;;;18.31;100.00
75290;BME280;63883;48.996;20.804;2023-08-06T07:06:03;95029.50;;;18.38;100.00
75290;BME280;63883;48.996;20.804;2023-08-06T07:08:29;95035.13;;;18.43;100.00
75290;BME280;63883;48.996;20.804;2023-08-06T07:11:02;95031.84;;;18.41;100.00
75290;BME280;63883;48.996;20.804;2023-08-06T07:13:28;95031.41;;;18.36;100.00
75290;BME280;63883;48.996;20.804;2023-08-06T07:15:54;95022.66;;;18.27;100.00
75290;BME280;63883;48.996;20.804;2023-08-06T07:18:21;95031.75;;;18.22;100.00
75290;BME280;63883;48.996;20.804;2023-08-06T07:20:53;95037.16;;;18.19;100.00
75290;BME280;63883;48.996;20.804;2023-08-06T07:23:20;95031.34;;;18.26;100.00
75290;BME280;63883;48.996;20.804;2023-08-06T07:25:47;95037.88;;;18.30;100.00
75290;BME280;63883;48.996;20.804;2023-08-06T07:28:14;95032.88;;;18.29;100.00
75290;BME280;63883;48.996;20.804;2023-08-06T07:30:40;95023.91;;;18.33;100.00
75290;BME280;63883;48.996;20.804;2023-08-06T07:33:06;95032.59;;;18.53;100.00
75290;BME280;63883;48.996;20.804;2023-08-06T07:35:32;95017.25;;;18.51;100.00
75290;BME280;63883;48.996;20.804;2023-08-06T07:37:58;95023.56;;;18.58;99.64
75290;BME280;63883;48.996;20.804;2023-08-06T07:40:24;95010.66;;;18.58;100.00
75290;BME280;63883;48.996;20.804;2023-08-06T07:42:50;95018.28;;;18.69;100.00
75290;BME280;63883;48.996;20.804;2023-08-06T07:45:15;95012.19;;;18.70;100.00
75290;BME280;63883;48.996;20.804;2023-08-06T07:47:41;95026.47;;;18.75;99.39
75290;BME280;63883;48.996;20.804;2023-08-06T07:50:08;95015.88;;;18.78;98.73
75290;BME280;63883;48.996;20.804;2023-08-06T07:52:34;95016.25;;;18.73;97.83
75290;BME280;63883;48.996;20.804;2023-08-06T07:55:00;95015.13;;;18.66;99.06
75290;BME280;63883;48.996;20.804;2023-08-06T07:57:27;95014.59;;;18.62;98.16
75290;BME280;63883;48.996;20.804;2023-08-06T07:59:53;95019.50;;;18.65;97.91
75290;BME280;63883;48.996;20.804;2023-08-06T08:02:19;95018.28;;;18.69;98.55
75290;BME280;63883;48.996;20.804;2023-08-06T08:04:45;95018.72;;;18.75;98.04
75290;BME280;63883;48.996;20.804;2023-08-06T08:07:12;95027.72;;;18.80;98.37
75290;BME280;63883;48.996;20.804;2023-08-06T08:09:38;95019.06;;;18.91;96.91
75290;BME280;63883;48.996;20.804;2023-08-06T08:12:04;95018.22;;;18.90;98.71
75290;BME280;63883;48.996;20.804;2023-08-06T08:14:30;95023.44;;;19.00;96.32
75290;BME280;63883;48.996;20.804;2023-08-06T08:17:02;95016.88;;;18.96;97.35
75290;BME280;63883;48.996;20.804;2023-08-06T08:19:28;95017.16;;;18.93;95.02
75290;BME280;63883;48.996;20.804;2023-08-06T08:21:54;95007.38;;;18.96;95.26
75290;BME280;63883;48.996;20.804;2023-08-06T08:24:20;95009.66;;;18.90;93.54
75290;BME280;63883;48.996;20.804;2023-08-06T08:26:52;95002.59;;;18.92;94.77
75290;BME280;63883;48.996;20.804;2023-08-06T08:29:21;95009.00;;;18.97;95.33
75290;BME280;63883;48.996;20.804;2023-08-06T08:31:47;95002.06;;;18.98;94.51
75290;BME280;63883;48.996;20.804;2023-08-06T08:34:18;95003.72;;;18.99;95.39
75290;BME280;63883;48.996;20.804;2023-08-06T08:36:44;94993.25;;;19.00;95.61
75290;BME280;63883;48.996;20.804;2023-08-06T08:39:15;94998.72;;;19.07;93.95
75290;BME280;63883;48.996;20.804;2023-08-06T08:41:42;94993.53;;;19.17;94.04
75290;BME280;63883;48.996;20.804;2023-08-06T08:44:09;94997.31;;;19.03;92.89
75290;BME280;63883;48.996;20.804;2023-08-06T08:46:40;94996.22;;;18.96;94.75
75290;BME280;63883;48.996;20.804;2023-08-06T08:49:06;94995.97;;;18.99;93.08
75290;BME280;63883;48.996;20.804;2023-08-06T08:51:33;94994.28;;;18.88;94.06
75290;BME280;63883;48.996;20.804;2023-08-06T08:54:00;94986.69;;;18.96;93.10
75290;BME280;63883;48.996;20.804;2023-08-06T08:56:28;94994.50;;;19.06;93.00
75290;BME280;63883;48.996;20.804;2023-08-06T08:58:53;94992.16;;;19.03;92.47
75290;BME280;63883;48.996;20.804;2023-08-06T09:01:24;94987.81;;;19.03;94.29
75290;BME280;63883;48.996;20.804;2023-08-06T09:03:51;94991.38;;;19.12;91.96
75290;BME280;63883;48.996;20.804;2023-08-06T09:06:18;94983.38;;;19.15;92.62
75290;BME280;63883;48.996;20.804;2023-08-06T09:08:53;94982.53;;;19.24;93.36
75290;BME280;63883;48.996;20.804;2023-08-06T09:11:23;94986.50;;;19.28;91.17
75290;BME280;63883;48.996;20.804;2023-08-06T09:13:49;94965.41;;;19.23;91.65
75290;BME280;63883;48.996;20.804;2023-08-06T09:16:14;94974.81;;;19.43;90.09
75290;BME280;63883;48.996;20.804;2023-08-06T09:18:40;94969.66;;;19.53;89.81
75290;BME280;63883;48.996;20.804;2023-08-06T09:21:13;94961.94;;;19.72;88.10
75290;BME280;63883;48.996;20.804;2023-08-06T09:23:39;94951.97;;;19.87;89.08
75290;BME280;63883;48.996;20.804;2023-08-06T09:26:05;94953.06;;;19.94;89.14
75290;BME280;63883;48.996;20.804;2023-08-06T09:28:37;94945.41;;;20.02;90.22
75290;BME280;63883;48.996;20.804;2023-08-06T09:31:08;94939.00;;;19.97;90.02
75290;BME280;63883;48.996;20.804;2023-08-06T09:33:36;94951.25;;;20.14;88.37
75290;BME280;63883;48.996;20.804;2023-08-06T09:36:11;94958.19;;;20.23;86.92
75290;BME280;63883;48.996;20.804;2023-08-06T09:38:40;94949.56;;;20.42;86.06
75290;BME280;63883;48.996;20.804;2023-08-06T09:41:07;94948.13;;;20.57;85.84
75290;BME280;63883;48.996;20.804;2023-08-06T09:43:42;94956.25;;;20.72;84.50
75290;BME280;63883;48.996;20.804;2023-08-06T09:46:12;94956.97;;;20.64;85.02
75290;BME280;63883;48.996;20.804;2023-08-06T09:48:39;94949.38;;;20.53;86.47
75290;BME280;63883;48.996;20.804;2023-08-06T09:51:08;94946.38;;;20.57;85.88
75290;BME280;63883;48.996;20.804;2023-08-06T09:53:34;94945.53;;;20.57;85.09
75290;BME280;63883;48.996;20.804;2023-08-06T09:56:01;94954.16;;;20.48;84.30
75290;BME280;63883;48.996;20.804;2023-08-06T09:58:27;94956.66;;;20.30;85.35
75290;BME280;63883;48.996;20.804;2023-08-06T10:00:53;94961.50;;;19.77;89.67
75290;BME280;63883;48.996;20.804;2023-08-06T10:03:18;94975.66;;;19.54;92.92
75290;BME280;63883;48.996;20.804;2023-08-06T10:05:45;94975.13;;;19.69;91.13
75290;BME280;63883;48.996;20.804;2023-08-06T10:08:11;94967.72;;;20.22;90.44
75290;BME280;63883;48.996;20.804;2023-08-06T10:10:37;94968.97;;;19.89;89.39
75290;BME280;63883;48.996;20.804;2023-08-06T10:13:05;94953.06;;;19.94;91.92
75290;BME280;63883;48.996;20.804;2023-08-06T10:15:32;94960.69;;;19.76;92.87
75290;BME280;63883;48.996;20.804;2023-08-06T10:17:59;94956.03;;;19.99;90.03
75290;BME280;63883;48.996;20.804;2023-08-06T10:20:26;94955.91;;;19.91;91.84
75290;BME280;63883;48.996;20.804;2023-08-06T10:23:00;94951.63;;;20.38;88.64
75290;BME280;63883;48.996;20.804;2023-08-06T10:25:30;94954.28;;;20.83;87.78
75290;BME280;63883;48.996;20.804;2023-08-06T10:27:56;94957.19;;;21.25;82.73
75290;BME280;63883;48.996;20.804;2023-08-06T10:30:30;94959.59;;;21.54;83.15
75290;BME280;63883;48.996;20.804;2023-08-06T10:32:57;94955.19;;;21.19;80.16
75290;BME280;63883;48.996;20.804;2023-08-06T10:35:36;94961.66;;;20.88;82.04
75290;BME280;63883;48.996;20.804;2023-08-06T10:40:33;94945.44;;;20.49;84.68
75290;BME280;63883;48.996;20.804;2023-08-06T10:43:00;94947.75;;;20.79;82.84
75290;BME280;63883;48.996;20.804;2023-08-06T10:45:26;94946.59;;;21.19;81.25
75290;BME280;63883;48.996;20.804;2023-08-06T10:47:54;94945.66;;;21.37;79.99
75290;BME280;63883;48.996;20.804;2023-08-06T10:50:24;94938.63;;;21.30;78.98
75290;BME280;63883;48.996;20.804;2023-08-06T10:52:50;94951.28;;;21.05;79.19
75290;BME280;63883;48.996;20.804;2023-08-06T10:55:27;94941.13;;;21.22;79.32
75290;BME280;63883;48.996;20.804;2023-08-06T10:57:54;94943.59;;;21.59;77.94
75290;BME280;63883;48.996;20.804;2023-08-06T11:00:21;94935.72;;;21.68;78.36
75290;BME280;63883;48.996;20.804;2023-08-06T11:02:48;94936.31;;;21.80;78.39
75290;BME280;63883;48.996;20.804;2023-08-06T11:05:15;94946.69;;;21.62;78.04
75290;BME280;63883;48.996;20.804;2023-08-06T11:07:41;94925.50;;;21.67;77.85
75290;BME280;63883;48.996;20.804;2023-08-06T11:10:10;94933.00;;;21.52;76.99
75290;BME280;63883;48.996;20.804;2023-08-06T11:12:35;94931.50;;;21.50;77.77
75290;BME280;63883;48.996;20.804;2023-08-06T11:15:03;94926.63;;;21.29;77.94
75290;BME280;63883;48.996;20.804;2023-08-06T11:17:30;94941.00;;;21.41;78.49
75290;BME280;63883;48.996;20.804;2023-08-06T11:19:56;94933.81;;;21.35;79.93
75290;BME280;63883;48.996;20.804;2023-08-06T11:22:24;94935.25;;;21.20;80.52
75290;BME280;63883;48.996;20.804;2023-08-06T11:24:50;94945.06;;;20.98;80.55
75290;BME280;63883;48.996;20.804;2023-08-06T11:27:16;94943.06;;;20.92;80.99
75290;BME280;63883;48.996;20.804;2023-08-06T11:29:44;94943.06;;;20.65;80.63
75290;BME280;63883;48.996;20.804;2023-08-06T11:32:10;94938.72;;;20.56;83.76
75290;BME280;63883;48.996;20.804;2023-08-06T11:34:37;94938.47;;;20.49;82.78
75290;BME280;63883;48.996;20.804;2023-08-06T11:37:03;94949.81;;;20.39;82.07
75290;BME280;63883;48.996;20.804;2023-08-06T11:39:34;94945.06;;;20.44;83.20
75290;BME280;63883;48.996;20.804;2023-08-06T11:42:03;94936.72;;;20.50;84.23
75290;BME280;63883;48.996;20.804;2023-08-06T11:44:36;94929.41;;;20.63;83.02
75290;BME280;63883;48.996;20.804;2023-08-06T11:47:03;94923.78;;;20.67;81.45
75290;BME280;63883;48.996;20.804;2023-08-06T11:54:36;94926.16;;;21.51;78.09
75290;BME280;63883;48.996;20.804;2023-08-06T11:57:08;94929.88;;;21.49;77.47
75290;BME280;63883;48.996;20.804;2023-08-06T11:59:34;94928.19;;;21.39;79.42
75290;BME280;63883;48.996;20.804;2023-08-06T12:02:01;94925.56;;;21.22;78.58
75290;BME280;63883;48.996;20.804;2023-08-06T12:04:27;94936.78;;;21.13;78.08
75290;BME280;63883;48.996;20.804;2023-08-06T12:06:53;94939.22;;;21.59;79.18
75290;BME280;63883;48.996;20.804;2023-08-06T12:09:19;94942.03;;;21.48;77.32
75290;BME280;63883;48.996;20.804;2023-08-06T12:11:44;94933.72;;;21.27;79.70
75290;BME280;63883;48.996;20.804;2023-08-06T12:14:10;94930.41;;;21.17;79.59
75290;BME280;63883;48.996;20.804;2023-08-06T12:16:36;94922.69;;;20.97;80.56
75290;BME280;63883;48.996;20.804;2023-08-06T12:19:01;94923.84;;;20.85;80.93
75290;BME280;63883;48.996;20.804;2023-08-06T12:21:27;94925.94;;;20.82;82.52
75290;BME280;63883;48.996;20.804;2023-08-06T12:23:53;94923.56;;;20.88;80.36
75290;BME280;63883;48.996;20.804;2023-08-06T12:26:18;94921.06;;;21.24;78.32
75290;BME280;63883;48.996;20.804;2023-08-06T12:28:44;94917.03;;;21.47;78.03
75290;BME280;63883;48.996;20.804;2023-08-06T12:31:09;94913.28;;;21.85;76.73
75290;BME280;63883;48.996;20.804;2023-08-06T12:33:35;94909.81;;;21.94;75.31
75290;BME280;63883;48.996;20.804;2023-08-06T12:36:01;94916.19;;;22.00;75.94
75290;BME280;63883;48.996;20.804;2023-08-06T12:38:26;94913.28;;;21.59;75.20
75290;BME280;63883;48.996;20.804;2023-08-06T12:40:52;94912.66;;;21.65;76.68
75290;BME280;63883;48.996;20.804;2023-08-06T12:43:18;94920.66;;;21.54;78.52
75290;BME280;63883;48.996;20.804;2023-08-06T12:45:43;94925.19;;;21.34;77.92
75290;BME280;63883;48.996;20.804;2023-08-06T12:48:09;94925.75;;;21.11;78.32
75290;BME280;63883;48.996;20.804;2023-08-06T12:50:35;94923.56;;;20.88;79.87
75290;BME280;63883;48.996;20.804;2023-08-06T12:53:01;94930.00;;;20.84;79.75